createdAt,value
2022-12-08T00:04:58.427Z,100596.47
2022-12-08T00:20:00.198Z,100588.41
2022-12-08T00:35:02.541Z,100586.84
2022-12-08T00:50:05.787Z,100577.94
2022-12-08T01:05:08.394Z,100586.09
2022-12-08T01:20:10.292Z,100596.06
2022-12-08T01:35:12.631Z,100579.53
2022-12-08T01:50:17.491Z,100570.63
2022-12-08T02:05:22.835Z,100596.94
2022-12-08T02:20:46.089Z,100594.25
2022-12-08T02:36:12.042Z,100586.53
2022-12-08T02:51:13.828Z,100605.81
2022-12-08T03:06:40.855Z,100599.66
2022-12-08T03:21:45.868Z,100595.03
2022-12-08T03:36:48.014Z,100599.66
2022-12-08T03:51:49.855Z,100597.34
2022-12-08T04:06:51.759Z,100596.59
2022-12-08T04:21:53.547Z,100584.16
2022-12-08T04:36:55.531Z,100587.63
2022-12-08T04:51:57.414Z,100594.97
2022-12-08T05:06:59.297Z,100623.56
2022-12-08T05:22:01.077Z,100634.78
2022-12-08T05:37:03.101Z,100645.59
2022-12-08T05:52:04.989Z,100651.00
2022-12-08T06:07:08.035Z,100664.91
2022-12-08T06:22:11.430Z,100657.19
2022-12-08T06:37:13.772Z,100648.31
2022-12-08T06:52:15.953Z,100663.38
2022-12-08T07:07:17.751Z,100673.03
2022-12-08T07:22:19.567Z,100657.19
2022-12-08T07:37:23.111Z,100682.31
2022-12-08T07:52:25.069Z,100687.72
2022-12-08T08:07:26.925Z,100669.50
2022-12-08T08:22:29.239Z,100664.47
2022-12-08T08:37:31.396Z,100666.06
2022-12-08T08:52:33.321Z,100657.94
2022-12-08T09:07:35.186Z,100658.28
2022-12-08T09:22:36.977Z,100659.81
2022-12-08T09:37:40.132Z,100673.59
2022-12-08T09:52:47.449Z,100677.44
2022-12-08T10:07:59.520Z,100666.44
2022-12-08T10:23:13.816Z,100672.47
2022-12-08T10:38:27.165Z,100666.97
2022-12-08T10:53:34.205Z,100661.53
2022-12-08T11:08:49.343Z,100674.78
2022-12-08T11:23:51.200Z,100670.13
2022-12-08T11:38:57.848Z,100636.88
2022-12-08T11:54:12.869Z,100648.78
2022-12-08T12:09:33.342Z,100630.09
2022-12-08T12:24:38.688Z,100629.66
2022-12-08T12:40:15.830Z,100632.69
2022-12-08T12:55:24.628Z,100629.66
2022-12-08T13:10:31.869Z,100629.56
2022-12-08T13:25:45.496Z,100656.34
2022-12-08T13:40:48.475Z,100653.47
2022-12-08T14:11:35.202Z,100656.47
2022-12-08T14:26:37.147Z,100654.31
2022-12-08T14:41:39.697Z,100654.06
2022-12-08T14:56:43.845Z,100664.69
2022-12-08T15:11:45.717Z,100656.19
2022-12-08T15:26:50.537Z,100660.44
2022-12-08T15:41:52.570Z,100689.28
2022-12-08T15:57:18.728Z,100696.34
2022-12-08T16:28:29.616Z,100686.97
2022-12-08T16:43:28.199Z,100679.19
2022-12-08T16:58:32.795Z,100680.00
2022-12-08T17:13:36.241Z,100647.28
2022-12-08T17:28:59.543Z,100629.75
2022-12-08T17:44:01.271Z,100629.53
2022-12-08T17:59:33.026Z,100603.47
2022-12-08T18:14:39.641Z,100619.84
2022-12-08T18:29:41.490Z,100633.53
2022-12-08T18:44:43.852Z,100631.16
2022-12-08T18:59:46.056Z,100642.00
2022-12-08T19:14:48.024Z,100654.66
2022-12-08T19:29:49.862Z,100640.97
2022-12-08T19:44:54.831Z,100617.81
2022-12-08T19:59:56.698Z,100613.16
2022-12-08T20:15:01.469Z,100608.44
2022-12-08T20:30:04.300Z,100605.47
2022-12-08T20:45:09.633Z,100597.06
2022-12-08T21:00:12.794Z,100585.31
2022-12-08T21:15:14.886Z,100586.50
2022-12-08T21:30:17.822Z,100589.97
2022-12-08T21:45:22.328Z,100566.50
2022-12-08T22:00:24.690Z,100571.59
2022-12-08T22:15:29.862Z,100570.97
2022-12-08T22:30:37.215Z,100559.31
2022-12-08T22:45:41.594Z,100561.97
2022-12-08T23:00:43.681Z,100572.16
2022-12-08T23:15:46.033Z,100559.53
2022-12-08T23:30:47.825Z,100551.63
2022-12-08T23:45:50.166Z,100555.72
